Decoded Metar for UTDT ( in ) (IATA:) | Meteo·Mobile Aviation Weather
aviador You're here:

UTDT Decoded Metar

in
Report Time2019-10-22 13:00:00
UTC Time2019-10-22 13:27:32
Flight Rules vfr VFR
Wind130° at 4 kt
W.Decomp.*RWY 17: 3.1 kt HW 2.6 kt LCW
Visibility9999 m
Phenomena:N/A
Clouds:N/A
Expected CloudBase > 4,400 ft AGL from Temp-Dew spread
CeilingNone
Temp17°C
Dew Point06°C (49% RH)
AAT14.7°C
QNH1019 hPa
Raw Report
METAR UTDT 221300Z 13002MPS 9999 NSC 17/06 Q1019 R35/////// RMK
QFE724/0966=

Extra information for UTDT:More info

Social comments